Terminal Aerodrome Forecast
Issued by NWS Albany, NY

Home | Current Version | Previous Version | Text Only | Print | Product List | Glossary On
Versions: 1 2 3 4 5 6 7 8 9 10 11 12 13 14 15 16 17
458
FTUS41 KALY 221735
TAFPOU
TAF
KPOU 221735Z 2218/2318 VRB05KT P6SM SCT035
     FM230000 20008KT 6SM -SHRA BKN200 PROB30 2303/2304 4SM TS
      OVC025CB
     FM230500 21007KT P6SM OVC050 PROB30 2305/2306 4SM -TSRA
      OVC025CB
     FM231000 24006KT 2SM BR BKN250
     FM231200 29005KT P6SM BKN060
     FM231600 30006KT P6SM SCT250=

USA.gov is the U.S. government's official web portal to all federal, state and local government web resources and services.